createdAt,value
2018-02-04T00:02:05.078Z,2.40
2018-02-04T00:04:32.619Z,3.63
2018-02-04T00:07:00.322Z,4.30
2018-02-04T00:09:27.846Z,4.40
2018-02-04T00:11:55.375Z,7.10
2018-02-04T00:14:22.897Z,5.63
2018-02-04T00:16:50.510Z,3.93
2018-02-04T00:19:18.174Z,2.67
2018-02-04T00:21:46.396Z,5.40
2018-02-04T00:24:14.130Z,6.67
2018-02-04T00:26:41.652Z,5.03
2018-02-04T00:29:09.201Z,3.50
2018-02-04T00:31:36.755Z,3.20
2018-02-04T00:34:04.560Z,3.50
2018-02-04T00:36:32.227Z,2.60
2018-02-04T00:38:59.836Z,2.03
2018-02-04T00:41:27.371Z,1.70
2018-02-04T00:43:54.900Z,1.90
2018-02-04T00:46:22.416Z,1.83
2018-02-04T00:48:50.098Z,1.63
2018-02-04T00:51:17.664Z,1.80
2018-02-04T00:53:45.178Z,2.83
2018-02-04T00:56:12.707Z,2.93
2018-02-04T00:58:40.263Z,2.07
2018-02-04T01:01:07.909Z,3.73
2018-02-04T01:03:36.321Z,2.10
2018-02-04T01:06:03.874Z,2.23
2018-02-04T01:08:31.385Z,2.53
2018-02-04T01:10:59.138Z,3.80
2018-02-04T01:13:26.811Z,2.57
2018-02-04T01:15:54.596Z,3.73
2018-02-04T01:18:22.435Z,4.00
2018-02-04T01:20:49.937Z,3.77
2018-02-04T01:23:17.695Z,6.43
2018-02-04T01:25:45.352Z,5.60
2018-02-04T01:28:12.912Z,4.10
2018-02-04T01:30:40.596Z,6.53
2018-02-04T01:33:08.123Z,3.60
2018-02-04T01:35:35.642Z,3.00
2018-02-04T01:38:03.366Z,3.10
2018-02-04T01:40:30.889Z,3.37
2018-02-04T01:42:58.529Z,2.83
2018-02-04T01:45:26.072Z,2.83
2018-02-04T01:48:05.619Z,3.20
2018-02-04T01:50:33.373Z,3.30
2018-02-04T01:53:01.271Z,5.33
2018-02-04T01:55:29.019Z,2.93
2018-02-04T01:57:56.563Z,3.90
2018-02-04T02:00:24.209Z,3.10
2018-02-04T02:02:52.165Z,4.80
2018-02-04T02:05:19.707Z,2.07
2018-02-04T02:07:47.269Z,2.97
2018-02-04T02:10:14.785Z,3.57
2018-02-04T02:12:43.464Z,2.63
2018-02-04T02:15:10.992Z,2.30
2018-02-04T02:17:38.908Z,5.30
2018-02-04T02:20:06.425Z,2.07
2018-02-04T02:22:33.993Z,2.63
2018-02-04T02:25:01.672Z,3.90
2018-02-04T02:27:29.215Z,4.40
2018-02-04T02:29:56.777Z,3.77
2018-02-04T02:32:24.540Z,4.40
2018-02-04T02:34:52.060Z,5.90
2018-02-04T02:37:19.706Z,3.20
2018-02-04T02:39:47.227Z,3.80
2018-02-04T02:42:14.737Z,3.20
2018-02-04T02:44:42.263Z,3.63
2018-02-04T02:47:10.011Z,3.70
2018-02-04T02:49:37.709Z,4.00
2018-02-04T02:52:05.248Z,3.10
2018-02-04T02:54:33.136Z,3.63
2018-02-04T02:57:00.665Z,2.73
2018-02-04T02:59:28.196Z,3.00
2018-02-04T03:01:55.879Z,2.97
2018-02-04T03:04:23.683Z,2.97
2018-02-04T03:06:51.191Z,2.60
2018-02-04T03:09:19.807Z,2.50
2018-02-04T03:11:47.376Z,3.37
2018-02-04T03:14:15.022Z,2.40
2018-02-04T03:16:42.875Z,1.60
2018-02-04T03:19:10.381Z,1.30
2018-02-04T03:21:38.131Z,1.93
2018-02-04T03:24:05.915Z,1.70
2018-02-04T03:26:33.588Z,2.27
2018-02-04T03:29:01.127Z,1.47
2018-02-04T03:31:28.790Z,1.70
2018-02-04T03:33:56.313Z,2.10
2018-02-04T03:36:23.845Z,2.27
2018-02-04T03:38:51.370Z,4.00
2018-02-04T03:41:18.900Z,5.50
2018-02-04T03:43:46.405Z,1.73
2018-02-04T03:46:13.935Z,1.77
2018-02-04T03:48:41.459Z,2.90
2018-02-04T03:51:08.977Z,2.87
2018-02-04T03:53:36.492Z,1.30
2018-02-04T03:56:04.065Z,1.50
2018-02-04T03:58:31.588Z,2.67
2018-02-04T04:00:59.404Z,2.33
2018-02-04T04:03:26.940Z,1.73
2018-02-04T04:05:54.606Z,1.97
2018-02-04T04:08:22.131Z,1.40
2018-02-04T04:10:49.874Z,3.23
2018-02-04T04:13:17.399Z,1.63
2018-02-04T04:15:45.806Z,1.87
2018-02-04T04:18:13.471Z,3.10
2018-02-04T04:20:40.999Z,2.13
2018-02-04T04:23:08.534Z,1.77
2018-02-04T04:25:36.054Z,4.73
2018-02-04T04:28:03.605Z,2.53
2018-02-04T04:30:31.515Z,2.70
2018-02-04T04:32:59.042Z,1.80
2018-02-04T04:35:26.741Z,2.50
2018-02-04T04:37:54.632Z,3.60
2018-02-04T04:40:22.151Z,3.20
2018-02-04T04:42:49.723Z,6.20
2018-02-04T04:45:17.525Z,2.57
2018-02-04T04:47:45.200Z,2.10
2018-02-04T04:50:13.251Z,2.60
2018-02-04T04:52:41.422Z,3.93
2018-02-04T04:55:08.952Z,3.60
2018-02-04T04:57:36.467Z,4.70
2018-02-04T05:00:05.896Z,3.60
2018-02-04T05:02:33.401Z,3.10
2018-02-04T05:05:00.992Z,3.53
2018-02-04T05:07:28.511Z,3.03
2018-02-04T05:09:56.043Z,6.53
2018-02-04T05:12:23.773Z,2.97
2018-02-04T05:14:51.371Z,3.23
2018-02-04T05:17:18.904Z,2.63
2018-02-04T05:19:46.434Z,4.00
2018-02-04T05:22:14.872Z,4.00
2018-02-04T05:24:42.541Z,3.73
2018-02-04T05:27:10.088Z,2.27
2018-02-04T05:29:37.626Z,2.53
2018-02-04T05:32:05.467Z,5.43
2018-02-04T05:34:32.982Z,5.33
2018-02-04T05:37:00.628Z,4.13
2018-02-04T05:39:28.176Z,6.83
2018-02-04T05:41:56.069Z,4.93
2018-02-04T05:44:23.882Z,2.67
2018-02-04T05:46:51.426Z,3.50
2018-02-04T05:49:19.119Z,3.30
2018-02-04T05:51:46.666Z,5.17
2018-02-04T05:54:14.284Z,4.93
2018-02-04T05:56:41.805Z,3.90
2018-02-04T05:59:09.338Z,3.90
2018-02-04T06:01:37.116Z,4.93
2018-02-04T06:04:04.745Z,4.33
2018-02-04T06:06:32.416Z,5.10
2018-02-04T06:08:59.944Z,6.47
2018-02-04T06:11:27.693Z,11.13
2018-02-04T06:13:56.396Z,10.33
2018-02-04T06:16:23.935Z,7.93
2018-02-04T06:18:51.607Z,11.13
2018-02-04T06:21:19.350Z,6.73
2018-02-04T06:23:47.246Z,6.40
2018-02-04T06:26:15.048Z,12.87
2018-02-04T06:28:42.905Z,5.90
2018-02-04T06:31:10.707Z,7.10
2018-02-04T06:33:38.225Z,5.30
2018-02-04T06:36:05.875Z,5.57
2018-02-04T06:38:33.692Z,4.70
2018-02-04T06:41:01.224Z,3.73
2018-02-04T06:43:28.737Z,4.60
2018-02-04T06:45:56.275Z,3.80
2018-02-04T06:48:23.997Z,4.40
2018-02-04T06:50:51.530Z,5.70
2018-02-04T06:53:19.087Z,6.10
2018-02-04T06:55:46.972Z,8.70
2018-02-04T06:58:15.378Z,14.20
2018-02-04T07:00:43.029Z,9.90
2018-02-04T07:03:10.826Z,9.93
2018-02-04T07:05:38.350Z,10.80
2018-02-04T07:08:05.869Z,10.50
2018-02-04T07:10:33.423Z,11.10
2018-02-04T07:13:01.253Z,36.53
2018-02-04T07:15:29.014Z,20.90
2018-02-04T07:17:56.537Z,16.60
2018-02-04T07:20:24.045Z,18.07
2018-02-04T07:22:51.885Z,17.93
2018-02-04T07:25:19.560Z,22.80
2018-02-04T07:27:47.327Z,15.93
2018-02-04T07:30:15.092Z,16.17
2018-02-04T07:32:42.632Z,19.27
2018-02-04T07:35:10.293Z,20.90
2018-02-04T07:37:38.064Z,18.20
2018-02-04T07:40:05.586Z,18.73
2018-02-04T07:42:33.147Z,20.33
2018-02-04T07:45:00.694Z,20.50
2018-02-04T07:47:28.351Z,22.53
2018-02-04T07:49:55.878Z,23.40
2018-02-04T07:52:23.390Z,20.10
2018-02-04T07:54:51.162Z,23.63
2018-02-04T07:57:18.703Z,18.97
2018-02-04T07:59:46.392Z,11.80
2018-02-04T08:02:14.189Z,14.30
2018-02-04T08:04:41.727Z,14.07
2018-02-04T08:07:09.424Z,13.10
2018-02-04T08:09:36.998Z,19.37
2018-02-04T08:12:04.589Z,17.20
2018-02-04T08:14:32.138Z,36.97
2018-02-04T08:16:59.682Z,25.00
2018-02-04T08:19:27.458Z,33.50
2018-02-04T08:21:54.971Z,25.67
2018-02-04T08:24:22.618Z,15.07
2018-02-04T08:26:50.148Z,10.80
2018-02-04T08:29:17.900Z,9.30
2018-02-04T08:31:45.423Z,12.93
2018-02-04T08:34:12.987Z,10.53
2018-02-04T08:36:40.634Z,19.70
2018-02-04T08:39:08.187Z,19.07
2018-02-04T08:41:36.051Z,16.83
2018-02-04T08:44:03.798Z,17.43
2018-02-04T08:46:31.351Z,15.17
2018-02-04T08:48:59.028Z,13.50
2018-02-04T08:51:26.874Z,20.53
2018-02-04T08:53:54.399Z,20.07
2018-02-04T08:56:21.923Z,18.57
2018-02-04T08:58:49.679Z,18.93
2018-02-04T09:01:17.259Z,21.03
2018-02-04T09:03:44.864Z,23.90
2018-02-04T09:06:12.589Z,21.87
2018-02-04T09:08:40.131Z,15.47
2018-02-04T09:11:07.815Z,20.40
2018-02-04T09:13:35.365Z,20.10
2018-02-04T09:16:02.980Z,17.93
2018-02-04T09:18:30.625Z,14.80
2018-02-04T09:20:58.556Z,12.30
2018-02-04T09:23:26.091Z,13.30
2018-02-04T09:25:53.847Z,15.77
2018-02-04T09:28:21.394Z,17.60
2018-02-04T09:30:49.102Z,12.70
2018-02-04T09:33:16.678Z,15.00
2018-02-04T09:35:44.199Z,11.70
2018-02-04T09:38:11.705Z,12.10
2018-02-04T09:40:39.243Z,12.07
2018-02-04T09:43:06.894Z,13.00
2018-02-04T09:45:35.445Z,13.70
2018-02-04T09:48:03.003Z,11.83
2018-02-04T09:50:30.577Z,14.53
2018-02-04T09:52:58.464Z,11.60
2018-02-04T09:55:26.135Z,9.20
2018-02-04T09:57:53.669Z,7.50
2018-02-04T10:00:21.318Z,9.60
2018-02-04T10:02:49.067Z,15.73
2018-02-04T10:05:16.945Z,6.10
2018-02-04T10:07:44.689Z,9.20
2018-02-04T10:10:12.212Z,7.57
2018-02-04T10:12:39.849Z,7.63
2018-02-04T10:15:08.000Z,4.80
2018-02-04T10:17:35.762Z,6.17
2018-02-04T10:20:03.756Z,8.77
2018-02-04T10:22:31.320Z,8.27
2018-02-04T10:24:59.059Z,4.77
2018-02-04T10:27:26.840Z,5.47
2018-02-04T10:29:54.378Z,8.13
2018-02-04T10:32:21.902Z,10.20
2018-02-04T10:34:49.414Z,6.63
2018-02-04T10:37:17.092Z,9.20
2018-02-04T10:39:44.624Z,5.83
2018-02-04T10:42:12.166Z,4.60
2018-02-04T10:44:39.925Z,5.60
2018-02-04T10:47:07.441Z,5.80
2018-02-04T10:49:35.129Z,6.17
2018-02-04T10:52:03.068Z,6.70
2018-02-04T10:54:32.032Z,6.70
2018-02-04T10:56:59.848Z,7.47
2018-02-04T10:59:27.361Z,4.20
2018-02-04T11:01:54.921Z,5.23
2018-02-04T11:04:22.439Z,6.63
2018-02-04T11:06:50.231Z,7.17
2018-02-04T11:09:17.814Z,6.17
2018-02-04T11:11:45.459Z,5.97
2018-02-04T11:14:13.365Z,4.80
2018-02-04T11:16:41.082Z,6.83
2018-02-04T11:19:08.667Z,5.60
2018-02-04T11:21:36.251Z,4.27
2018-02-04T11:24:03.861Z,5.37
2018-02-04T11:26:31.624Z,15.33
2018-02-04T11:28:59.265Z,7.27
2018-02-04T11:31:26.809Z,8.70
2018-02-04T11:33:54.370Z,8.20
2018-02-04T11:36:22.024Z,5.73
2018-02-04T11:38:49.552Z,7.00
2018-02-04T11:41:17.132Z,6.50
2018-02-04T11:43:44.842Z,9.60
2018-02-04T11:46:12.378Z,7.63
2018-02-04T11:48:39.961Z,6.20
2018-02-04T11:51:07.639Z,10.83
2018-02-04T11:53:35.252Z,10.70
2018-02-04T11:56:02.829Z,6.53
2018-02-04T11:58:30.541Z,12.00
2018-02-04T12:00:58.199Z,7.90
2018-02-04T12:03:26.464Z,5.33
2018-02-04T12:05:53.996Z,5.50
2018-02-04T12:08:21.667Z,6.30
2018-02-04T12:10:49.200Z,9.03
2018-02-04T12:13:16.791Z,6.23
2018-02-04T12:15:44.340Z,9.77
2018-02-04T12:18:12.017Z,10.60
2018-02-04T12:20:39.666Z,8.80
2018-02-04T12:23:07.207Z,6.13
2018-02-04T12:25:34.775Z,6.40
2018-02-04T12:28:02.354Z,7.80
2018-02-04T12:30:29.951Z,7.30
2018-02-04T12:32:57.506Z,7.50
2018-02-04T12:35:25.309Z,10.07
2018-02-04T12:37:52.865Z,8.37
2018-02-04T12:40:20.448Z,10.17
2018-02-04T12:42:48.016Z,8.00
2018-02-04T12:45:15.565Z,7.57
2018-02-04T12:47:43.330Z,9.00
2018-02-04T12:50:11.019Z,11.43
2018-02-04T12:52:38.856Z,8.70
2018-02-04T12:55:06.441Z,9.33
2018-02-04T12:57:33.984Z,8.17
2018-02-04T13:00:01.889Z,9.60
2018-02-04T13:02:29.670Z,10.60
2018-02-04T13:04:57.246Z,9.23
2018-02-04T13:07:24.870Z,10.83
2018-02-04T13:09:52.587Z,11.83
2018-02-04T13:12:20.144Z,10.80
2018-02-04T13:14:48.763Z,8.90
2018-02-04T13:17:17.250Z,9.30
2018-02-04T13:19:44.932Z,8.50
2018-02-04T13:22:13.162Z,10.60
2018-02-04T13:24:40.810Z,8.80
2018-02-04T13:27:08.343Z,11.47
2018-02-04T13:29:35.948Z,9.60
2018-02-04T13:32:03.506Z,13.13
2018-02-04T13:34:31.054Z,9.47
2018-02-04T13:36:58.614Z,8.40
2018-02-04T13:39:26.157Z,8.60
2018-02-04T13:41:53.690Z,8.90
2018-02-04T13:44:21.243Z,7.90
2018-02-04T13:46:48.822Z,8.40
2018-02-04T13:49:16.391Z,7.03
2018-02-04T13:51:43.951Z,10.77
2018-02-04T13:54:11.502Z,7.87
2018-02-04T13:56:39.065Z,11.03
2018-02-04T13:59:06.683Z,9.77
2018-02-04T14:01:34.621Z,8.37
2018-02-04T14:04:02.295Z,9.50
2018-02-04T14:06:29.885Z,9.23
2018-02-04T14:08:57.501Z,6.53
2018-02-04T14:11:25.022Z,7.67
2018-02-04T14:13:52.570Z,7.40
2018-02-04T14:16:20.133Z,8.30
2018-02-04T14:18:47.718Z,7.10
2018-02-04T14:21:15.260Z,10.70
2018-02-04T14:23:42.854Z,9.53
2018-02-04T14:26:10.465Z,9.13
2018-02-04T14:28:38.049Z,10.30
2018-02-04T14:31:05.622Z,9.60
2018-02-04T14:33:33.258Z,9.00
2018-02-04T14:36:00.814Z,9.53
2018-02-04T14:38:28.378Z,10.17
2018-02-04T14:40:55.928Z,9.10
2018-02-04T14:43:23.524Z,12.23
2018-02-04T14:45:51.055Z,10.60
2018-02-04T14:48:18.987Z,10.17
2018-02-04T14:50:46.577Z,16.70
2018-02-04T14:53:14.280Z,13.40
2018-02-04T14:55:41.898Z,12.03
2018-02-04T14:58:09.515Z,10.93
2018-02-04T15:00:37.099Z,12.63
2018-02-04T15:03:05.494Z,11.63
2018-02-04T15:05:33.274Z,12.87
2018-02-04T15:08:00.876Z,14.07
2018-02-04T15:10:28.444Z,12.90
2018-02-04T15:12:56.052Z,16.83
2018-02-04T15:15:23.900Z,14.00
2018-02-04T15:17:51.464Z,15.40
2018-02-04T15:20:19.367Z,15.20
2018-02-04T15:22:46.959Z,20.63
2018-02-04T15:25:14.598Z,13.07
2018-02-04T15:27:42.189Z,19.90
2018-02-04T15:30:10.063Z,13.30
2018-02-04T15:32:37.648Z,14.20
2018-02-04T15:35:05.233Z,18.10
2018-02-04T15:37:32.880Z,17.20
2018-02-04T15:40:00.489Z,16.33
2018-02-04T15:42:28.187Z,16.20
2018-02-04T15:44:55.995Z,17.80
2018-02-04T15:47:23.560Z,14.93
2018-02-04T15:49:51.183Z,16.47
2018-02-04T15:52:19.140Z,13.20
2018-02-04T15:54:47.120Z,14.00
2018-02-04T15:57:14.772Z,16.00
2018-02-04T15:59:42.694Z,15.87
2018-02-04T16:02:10.301Z,15.30
2018-02-04T16:04:37.892Z,19.10
2018-02-04T16:07:05.709Z,17.30
2018-02-04T16:09:33.319Z,12.13
2018-02-04T16:12:00.912Z,17.00
2018-02-04T16:14:28.589Z,17.30
2018-02-04T16:16:56.155Z,17.80
2018-02-04T16:19:23.739Z,16.73
2018-02-04T16:21:51.352Z,16.93
2018-02-04T16:24:19.157Z,19.90
2018-02-04T16:26:46.829Z,17.60
2018-02-04T16:29:14.730Z,14.43
2018-02-04T16:31:43.052Z,18.00
2018-02-04T16:34:10.776Z,20.00
2018-02-04T16:36:38.448Z,21.43
2018-02-04T16:39:06.050Z,17.30
2018-02-04T16:41:33.614Z,18.90
2018-02-04T16:44:01.247Z,16.80
2018-02-04T16:46:28.855Z,19.93
2018-02-04T16:48:57.071Z,19.67
2018-02-04T16:51:25.451Z,15.43
2018-02-04T16:53:53.228Z,18.03
2018-02-04T16:56:20.789Z,16.77
2018-02-04T16:58:48.386Z,19.83
2018-02-04T17:01:16.758Z,17.80
2018-02-04T17:03:44.309Z,15.70
2018-02-04T17:06:11.903Z,13.77
2018-02-04T17:08:39.478Z,13.27
2018-02-04T17:11:07.133Z,14.43
2018-02-04T17:13:34.934Z,15.17
2018-02-04T17:16:04.578Z,15.53
2018-02-04T17:18:33.000Z,15.83
2018-02-04T17:21:02.297Z,17.80
2018-02-04T17:23:29.879Z,14.23
2018-02-04T17:25:57.512Z,17.07
2018-02-04T17:28:25.092Z,13.23
2018-02-04T17:30:52.725Z,14.33
2018-02-04T17:33:20.296Z,13.00
2018-02-04T17:35:48.855Z,11.77
2018-02-04T17:38:16.443Z,13.10
2018-02-04T17:40:44.217Z,13.47
2018-02-04T17:43:11.788Z,15.80
2018-02-04T17:45:39.392Z,17.83
2018-02-04T17:48:07.066Z,14.50
2018-02-04T17:50:35.089Z,14.57
2018-02-04T17:53:02.671Z,13.23
2018-02-04T17:55:31.140Z,17.43
2018-02-04T17:57:58.689Z,9.90
2018-02-04T18:00:27.360Z,13.50
2018-02-04T18:02:54.996Z,13.33
2018-02-04T18:05:22.728Z,11.23
2018-02-04T18:07:51.016Z,23.53
2018-02-04T18:10:19.194Z,11.23
2018-02-04T18:12:48.211Z,13.50
2018-02-04T18:15:16.445Z,11.73
2018-02-04T18:17:44.446Z,11.70
2018-02-04T18:20:13.007Z,13.00
2018-02-04T18:22:40.596Z,15.60
2018-02-04T18:25:08.197Z,11.67
2018-02-04T18:27:35.857Z,13.17
2018-02-04T18:30:08.855Z,15.37
2018-02-04T18:32:37.183Z,15.87
2018-02-04T18:35:05.591Z,12.97
2018-02-04T18:37:33.380Z,15.87
2018-02-04T18:40:01.019Z,14.27
2018-02-04T18:42:28.686Z,15.47
2018-02-04T18:44:57.217Z,12.37
2018-02-04T18:47:24.848Z,12.63
2018-02-04T18:49:52.721Z,10.83
2018-02-04T18:52:20.449Z,10.60
2018-02-04T18:54:48.151Z,15.83
2018-02-04T18:57:15.797Z,18.57
2018-02-04T18:59:43.615Z,18.57
2018-02-04T19:02:12.242Z,13.60
2018-02-04T19:04:39.853Z,18.97
2018-02-04T19:07:07.477Z,13.33
2018-02-04T19:09:36.064Z,15.60
2018-02-04T19:12:03.871Z,12.60
2018-02-04T19:14:31.478Z,16.33
2018-02-04T19:16:59.061Z,16.33
2018-02-04T19:19:26.787Z,15.50
2018-02-04T19:21:54.725Z,11.37
2018-02-04T19:24:23.287Z,13.60
2018-02-04T19:26:50.892Z,13.30
2018-02-04T19:29:19.156Z,18.90
2018-02-04T19:31:46.842Z,13.40
2018-02-04T19:34:14.440Z,13.80
2018-02-04T19:36:45.146Z,13.43
2018-02-04T19:39:12.793Z,12.33
2018-02-04T19:41:40.948Z,11.87
2018-02-04T19:44:08.824Z,9.60
2018-02-04T19:46:36.412Z,10.80
2018-02-04T19:49:04.686Z,10.47
2018-02-04T19:51:32.729Z,13.83
2018-02-04T19:54:00.495Z,13.13
2018-02-04T19:56:28.242Z,17.23
2018-02-04T19:58:56.173Z,10.87
2018-02-04T20:01:24.221Z,10.10
2018-02-04T20:03:51.916Z,8.70
2018-02-04T20:06:19.500Z,11.13
2018-02-04T20:08:47.156Z,7.90
2018-02-04T20:11:14.960Z,10.03
2018-02-04T20:13:42.573Z,11.77
2018-02-04T20:16:10.164Z,12.87
2018-02-04T20:18:38.678Z,9.30
2018-02-04T20:21:06.274Z,9.77
2018-02-04T20:23:33.842Z,9.70
2018-02-04T20:26:01.455Z,10.03
2018-02-04T20:28:29.246Z,10.63
2018-02-04T20:30:56.968Z,16.63
2018-02-04T20:33:25.282Z,11.07
2018-02-04T20:35:53.293Z,10.77
2018-02-04T20:38:21.081Z,11.60
2018-02-04T20:40:48.760Z,14.17
2018-02-04T20:43:16.368Z,14.67
2018-02-04T20:45:43.991Z,13.57
2018-02-04T20:48:11.632Z,14.13
2018-02-04T20:50:39.229Z,14.37
2018-02-04T20:53:06.851Z,10.30
2018-02-04T20:55:34.484Z,12.00
2018-02-04T20:58:02.050Z,10.73
2018-02-04T21:00:29.672Z,11.40
2018-02-04T21:02:57.256Z,13.47
2018-02-04T21:05:25.893Z,11.40
2018-02-04T21:07:54.561Z,10.40
2018-02-04T21:10:22.255Z,10.87
2018-02-04T21:12:49.899Z,10.03
2018-02-04T21:15:17.966Z,10.10
2018-02-04T21:17:46.149Z,11.77
2018-02-04T21:20:14.353Z,23.83
2018-02-04T21:22:41.959Z,16.30
2018-02-04T21:25:09.527Z,16.07
2018-02-04T21:27:37.465Z,13.30
2018-02-04T21:30:09.247Z,10.77
2018-02-04T21:32:38.445Z,11.20
2018-02-04T21:35:40.287Z,8.50
2018-02-04T21:38:16.780Z,11.07
2018-02-04T21:40:44.349Z,11.50
2018-02-04T21:43:11.960Z,9.47
2018-02-04T21:45:40.454Z,9.00
2018-02-04T21:50:53.317Z,8.83
2018-02-04T21:53:23.254Z,9.63
2018-02-04T21:55:50.762Z,8.97
2018-02-04T21:58:18.367Z,9.40
2018-02-04T22:00:45.950Z,9.77
2018-02-04T22:03:13.477Z,8.80
2018-02-04T22:05:41.010Z,13.23
2018-02-04T22:08:09.509Z,12.60
2018-02-04T22:14:03.692Z,10.60
2018-02-04T22:16:31.438Z,9.37
2018-02-04T22:18:58.959Z,9.30
2018-02-04T22:21:26.563Z,10.93
2018-02-04T22:27:34.645Z,13.27
2018-02-04T22:30:12.486Z,12.17
2018-02-04T22:32:40.361Z,9.83
2018-02-04T22:35:07.984Z,11.90
2018-02-04T22:37:35.668Z,11.53
2018-02-04T22:40:04.291Z,12.50
2018-02-04T22:42:31.869Z,11.40
2018-02-04T22:45:26.782Z,10.07
2018-02-04T22:47:54.575Z,10.10
2018-02-04T22:50:22.207Z,11.07
2018-02-04T22:52:49.769Z,10.43
2018-02-04T22:55:17.292Z,10.50
2018-02-04T22:57:44.848Z,10.30
2018-02-04T23:00:44.770Z,11.17
2018-02-04T23:03:27.690Z,11.60
2018-02-04T23:05:55.297Z,12.10
2018-02-04T23:08:29.943Z,13.33
2018-02-04T23:10:57.528Z,12.67
2018-02-04T23:13:25.424Z,11.90
2018-02-04T23:16:14.616Z,11.40
2018-02-04T23:18:42.179Z,9.53
2018-02-04T23:21:09.713Z,10.13
2018-02-04T23:23:39.859Z,9.63
2018-02-04T23:26:07.626Z,10.37
2018-02-04T23:28:35.332Z,12.67
2018-02-04T23:31:03.037Z,9.97
2018-02-04T23:33:30.582Z,10.67
2018-02-04T23:36:24.223Z,10.77
2018-02-04T23:42:46.055Z,13.17
2018-02-04T23:47:57.105Z,13.83
2018-02-04T23:50:24.731Z,11.00
2018-02-04T23:55:31.994Z,12.47
2018-02-04T23:58:00.399Z,14.00
